createdAt,value
2017-06-25T00:00:16.438Z,53.60
2017-06-25T00:02:43.938Z,53.90
2017-06-25T00:05:11.410Z,54.00
2017-06-25T00:07:39.666Z,54.20
2017-06-25T00:10:07.137Z,54.20
2017-06-25T00:12:35.407Z,54.10
2017-06-25T00:15:12.587Z,54.70
2017-06-25T00:17:40.079Z,54.10
2017-06-25T00:20:07.555Z,54.30
2017-06-25T00:22:35.027Z,55.00
2017-06-25T00:25:02.516Z,54.30
2017-06-25T00:27:30.750Z,54.80
2017-06-25T00:29:58.246Z,54.80
2017-06-25T00:32:25.715Z,54.60
2017-06-25T00:34:53.206Z,54.80
2017-06-25T00:37:20.677Z,54.70
2017-06-25T00:39:48.170Z,54.80
2017-06-25T00:42:16.411Z,55.10
2017-06-25T00:44:43.902Z,55.10
2017-06-25T00:47:11.378Z,55.30
2017-06-25T00:49:38.867Z,55.20
2017-06-25T00:52:06.340Z,55.30
2017-06-25T00:54:42.595Z,55.40
2017-06-25T00:57:10.061Z,55.50
2017-06-25T00:59:37.559Z,55.70
2017-06-25T01:02:05.026Z,55.60
2017-06-25T01:04:32.543Z,55.80
2017-06-25T01:07:00.021Z,55.90
2017-06-25T01:09:27.510Z,55.90
2017-06-25T01:11:54.986Z,55.90
2017-06-25T01:14:23.267Z,56.20
2017-06-25T01:16:51.510Z,56.30
2017-06-25T01:19:18.981Z,56.30
2017-06-25T01:21:46.475Z,56.30
2017-06-25T01:24:13.948Z,56.40
2017-06-25T01:26:41.435Z,56.60
2017-06-25T01:29:08.913Z,56.40
2017-06-25T01:31:37.173Z,56.90
2017-06-25T01:34:04.646Z,56.90
2017-06-25T01:36:32.906Z,57.00
2017-06-25T01:39:01.150Z,57.60
2017-06-25T01:41:28.639Z,57.30
2017-06-25T01:43:56.881Z,57.50
2017-06-25T01:46:24.374Z,57.50
2017-06-25T01:48:52.618Z,57.60
2017-06-25T01:51:20.111Z,57.60
2017-06-25T01:53:47.608Z,57.60
2017-06-25T01:56:15.098Z,57.70
2017-06-25T01:58:42.571Z,57.70
2017-06-25T02:01:10.059Z,57.90
2017-06-25T02:03:37.530Z,58.10
2017-06-25T02:06:05.021Z,58.30
2017-06-25T02:08:32.490Z,58.40
2017-06-25T02:10:59.958Z,58.60
2017-06-25T02:13:27.458Z,58.60
2017-06-25T02:15:54.926Z,58.80
2017-06-25T02:18:22.419Z,59.00
2017-06-25T02:20:49.891Z,59.20
2017-06-25T02:23:17.385Z,59.30
2017-06-25T02:25:44.862Z,59.40
2017-06-25T02:28:12.350Z,59.50
2017-06-25T02:30:39.828Z,59.50
2017-06-25T02:33:07.314Z,59.60
2017-06-25T02:35:35.553Z,59.80
2017-06-25T02:38:03.043Z,60.50
2017-06-25T02:40:31.282Z,60.00
2017-06-25T02:42:58.779Z,59.90
2017-06-25T02:45:26.250Z,60.00
2017-06-25T02:47:53.749Z,60.20
2017-06-25T02:50:21.218Z,60.40
2017-06-25T02:52:48.706Z,60.70
2017-06-25T02:55:16.189Z,61.00
2017-06-25T02:57:43.681Z,61.30
2017-06-25T03:00:11.163Z,61.50
2017-06-25T03:02:39.414Z,61.30
2017-06-25T03:05:06.883Z,61.30
2017-06-25T03:07:35.130Z,61.40
2017-06-25T03:10:02.621Z,61.40
2017-06-25T03:12:30.095Z,61.40
2017-06-25T03:14:57.583Z,61.60
2017-06-25T03:17:25.059Z,61.80
2017-06-25T03:19:52.552Z,62.10
2017-06-25T03:22:20.035Z,62.10
2017-06-25T03:24:47.536Z,62.10
2017-06-25T03:27:15.778Z,62.10
2017-06-25T03:29:43.271Z,62.10
2017-06-25T03:32:11.515Z,62.60
2017-06-25T03:34:39.010Z,62.60
2017-06-25T03:37:06.508Z,62.80
2017-06-25T03:39:33.992Z,62.80
2017-06-25T03:42:01.475Z,62.50
2017-06-25T03:44:28.962Z,62.70
2017-06-25T03:46:56.434Z,62.70
2017-06-25T03:49:23.927Z,62.30
2017-06-25T03:51:51.398Z,62.20
2017-06-25T03:54:18.890Z,61.80
2017-06-25T03:56:46.366Z,61.80
2017-06-25T03:59:13.854Z,61.90
2017-06-25T04:01:41.348Z,61.80
2017-06-25T04:04:08.847Z,61.80
2017-06-25T04:06:36.344Z,61.90
2017-06-25T04:09:03.818Z,62.10
2017-06-25T04:11:31.307Z,62.00
2017-06-25T04:13:59.542Z,62.30
2017-06-25T04:16:27.030Z,62.20
2017-06-25T04:18:55.276Z,62.20
2017-06-25T04:21:22.772Z,62.10
2017-06-25T04:23:50.253Z,61.80
2017-06-25T04:26:17.747Z,61.80
2017-06-25T04:28:45.222Z,61.30
2017-06-25T04:31:13.480Z,60.70
2017-06-25T04:33:40.952Z,60.70
2017-06-25T04:36:09.218Z,60.50
2017-06-25T04:38:37.454Z,60.00
2017-06-25T04:41:04.948Z,59.90
2017-06-25T04:43:33.182Z,59.70
2017-06-25T04:46:00.672Z,59.70
2017-06-25T04:48:28.911Z,59.50
2017-06-25T04:50:56.404Z,59.70
2017-06-25T04:53:23.892Z,59.40
2017-06-25T04:55:51.367Z,59.20
2017-06-25T04:58:18.856Z,59.20
2017-06-25T05:00:46.331Z,59.30
2017-06-25T05:03:13.833Z,59.10
2017-06-25T05:05:41.319Z,58.70
2017-06-25T05:08:08.815Z,58.50
2017-06-25T05:10:36.287Z,57.90
2017-06-25T05:13:03.783Z,57.70
2017-06-25T05:15:31.262Z,57.60
2017-06-25T05:17:58.770Z,57.70
2017-06-25T05:20:26.251Z,57.60
2017-06-25T05:22:54.511Z,57.30
2017-06-25T05:25:22.034Z,57.30
2017-06-25T05:27:49.529Z,57.40
2017-06-25T05:30:17.010Z,57.30
2017-06-25T05:32:44.512Z,57.50
2017-06-25T05:35:11.986Z,57.30
2017-06-25T05:37:39.486Z,57.10
2017-06-25T05:40:06.970Z,57.00
2017-06-25T05:42:34.462Z,57.10
2017-06-25T05:45:01.942Z,57.60
2017-06-25T05:47:29.458Z,57.70
2017-06-25T05:49:56.944Z,57.60
2017-06-25T05:52:24.418Z,58.00
2017-06-25T05:54:51.910Z,57.40
2017-06-25T05:57:19.399Z,57.10
2017-06-25T05:59:47.662Z,56.80
2017-06-25T06:02:15.903Z,56.80
2017-06-25T06:04:43.403Z,56.80
2017-06-25T06:07:11.645Z,56.50
2017-06-25T06:09:39.142Z,56.50
2017-06-25T06:12:06.617Z,56.70
2017-06-25T06:14:34.111Z,56.50
2017-06-25T06:17:01.590Z,56.00
2017-06-25T06:19:29.847Z,51.70
2017-06-25T06:21:57.327Z,51.60
2017-06-25T06:24:24.818Z,50.40
2017-06-25T06:26:52.300Z,49.60
2017-06-25T06:29:19.806Z,47.90
2017-06-25T06:31:47.281Z,46.90
2017-06-25T06:34:14.784Z,46.40
2017-06-25T06:36:43.018Z,47.20
2017-06-25T06:39:10.523Z,46.50
2017-06-25T06:41:38.771Z,44.70
2017-06-25T06:44:06.309Z,44.70
2017-06-25T06:46:33.778Z,43.10
2017-06-25T06:49:01.251Z,41.30
2017-06-25T06:51:29.510Z,40.90
2017-06-25T06:53:56.978Z,40.90
2017-06-25T06:56:24.470Z,41.50
2017-06-25T06:58:51.934Z,42.10
2017-06-25T07:01:19.431Z,42.30
2017-06-25T07:03:46.904Z,41.60
2017-06-25T07:06:15.166Z,45.50
2017-06-25T07:08:43.406Z,48.00
2017-06-25T07:11:10.891Z,47.70
2017-06-25T07:13:39.122Z,49.50
2017-06-25T07:16:06.617Z,49.60
2017-06-25T07:18:34.091Z,49.80
2017-06-25T07:21:01.578Z,49.60
2017-06-25T07:23:29.063Z,50.80
2017-06-25T07:25:56.554Z,51.00
2017-06-25T07:28:24.026Z,51.50
2017-06-25T07:30:51.510Z,51.10
2017-06-25T07:33:18.991Z,49.90
2017-06-25T07:35:46.483Z,45.90
2017-06-25T07:38:13.955Z,44.60
2017-06-25T07:40:41.461Z,43.30
2017-06-25T07:43:09.704Z,44.00
2017-06-25T07:45:37.173Z,43.60
2017-06-25T07:48:04.666Z,44.50
2017-06-25T07:50:32.130Z,43.80
2017-06-25T07:52:59.619Z,42.30
2017-06-25T07:55:27.091Z,42.00
2017-06-25T07:57:54.579Z,42.50
2017-06-25T08:00:22.814Z,39.50
2017-06-25T08:02:50.315Z,39.50
2017-06-25T08:05:17.789Z,41.20
2017-06-25T08:07:45.286Z,43.10
2017-06-25T08:10:12.758Z,44.70
2017-06-25T08:12:41.024Z,45.20
2017-06-25T08:15:08.497Z,45.10
2017-06-25T08:17:35.982Z,45.90
2017-06-25T08:20:03.463Z,46.70
2017-06-25T08:22:30.951Z,48.00
2017-06-25T08:24:59.194Z,48.80
2017-06-25T08:27:26.678Z,48.70
2017-06-25T08:29:54.914Z,49.50
2017-06-25T08:32:22.424Z,49.50
2017-06-25T08:34:49.894Z,49.90
2017-06-25T08:37:17.375Z,48.80
2017-06-25T08:39:44.866Z,48.80
2017-06-25T08:42:13.107Z,49.00
2017-06-25T08:44:40.602Z,49.00
2017-06-25T08:47:08.109Z,48.50
2017-06-25T08:49:35.606Z,47.60
2017-06-25T08:52:03.851Z,47.30
2017-06-25T08:54:31.780Z,47.30
2017-06-25T08:56:59.260Z,46.40
2017-06-25T08:59:26.752Z,45.20
2017-06-25T09:01:55.016Z,46.00
2017-06-25T09:04:23.272Z,48.20
2017-06-25T09:06:50.762Z,47.40
2017-06-25T09:09:18.258Z,48.70
2017-06-25T09:11:45.730Z,49.50
2017-06-25T09:14:13.219Z,50.30
2017-06-25T09:16:41.463Z,50.70
2017-06-25T09:19:08.971Z,50.70
2017-06-25T09:21:36.442Z,50.90
2017-06-25T09:24:03.935Z,50.00
2017-06-25T09:26:31.405Z,48.90
2017-06-25T09:28:59.674Z,49.00
2017-06-25T09:31:27.910Z,49.20
2017-06-25T09:33:55.399Z,49.20
2017-06-25T09:36:22.887Z,47.80
2017-06-25T09:38:50.362Z,46.10
2017-06-25T09:41:17.855Z,44.30
2017-06-25T09:43:45.331Z,44.40
2017-06-25T09:46:13.587Z,45.60
2017-06-25T09:48:41.859Z,46.90
2017-06-25T09:51:10.119Z,47.50
2017-06-25T09:53:37.586Z,47.00
2017-06-25T09:56:05.843Z,49.40
2017-06-25T09:58:33.314Z,48.80
2017-06-25T10:01:01.570Z,49.30
2017-06-25T10:03:29.044Z,49.70
2017-06-25T10:05:57.297Z,49.40
2017-06-25T10:08:24.770Z,49.30
2017-06-25T10:10:53.018Z,50.00
2017-06-25T10:13:20.502Z,49.50
2017-06-25T10:15:48.755Z,49.90
2017-06-25T10:18:16.243Z,49.80
2017-06-25T10:20:43.730Z,50.00
2017-06-25T10:23:11.202Z,50.00
2017-06-25T10:25:38.714Z,49.60
2017-06-25T10:28:06.192Z,48.80
2017-06-25T10:30:33.675Z,48.50
2017-06-25T10:33:01.167Z,48.70
2017-06-25T10:35:28.642Z,48.80
2017-06-25T10:37:56.127Z,48.70
2017-06-25T10:40:23.606Z,48.10
2017-06-25T10:42:51.103Z,47.90
2017-06-25T10:45:18.575Z,47.60
2017-06-25T10:47:46.075Z,47.10
2017-06-25T10:50:13.551Z,47.50
2017-06-25T10:52:41.046Z,47.10
2017-06-25T10:55:08.520Z,46.70
2017-06-25T10:57:36.056Z,45.40
2017-06-25T11:00:03.530Z,44.40
2017-06-25T11:02:31.025Z,43.30
2017-06-25T11:04:59.267Z,41.60
2017-06-25T11:07:26.762Z,41.60
2017-06-25T11:09:54.237Z,42.40
2017-06-25T11:12:21.730Z,42.40
2017-06-25T11:14:49.214Z,42.40
2017-06-25T11:17:16.707Z,42.10
2017-06-25T11:19:44.171Z,40.30
2017-06-25T11:22:11.642Z,39.30
2017-06-25T11:24:39.130Z,39.50
2017-06-25T11:27:07.369Z,40.10
2017-06-25T11:29:34.854Z,40.00
2017-06-25T11:32:03.091Z,41.30
2017-06-25T11:34:30.774Z,40.80
2017-06-25T11:36:59.015Z,41.40
2017-06-25T11:39:26.506Z,41.80
2017-06-25T11:41:54.749Z,42.70
2017-06-25T11:44:22.238Z,42.60
2017-06-25T11:46:49.719Z,43.40
2017-06-25T11:49:17.214Z,43.70
2017-06-25T11:51:44.691Z,43.70
2017-06-25T11:54:12.955Z,45.30
2017-06-25T11:56:40.435Z,44.50
2017-06-25T11:59:08.687Z,42.50
2017-06-25T12:01:36.161Z,42.40
2017-06-25T12:04:04.418Z,40.10
2017-06-25T12:06:32.654Z,40.40
2017-06-25T12:09:00.142Z,40.10
2017-06-25T12:11:27.618Z,38.80
2017-06-25T12:13:55.115Z,38.60
2017-06-25T12:16:22.592Z,38.30
2017-06-25T12:18:50.098Z,38.50
2017-06-25T12:21:17.570Z,39.60
2017-06-25T12:23:45.047Z,40.50
2017-06-25T12:26:12.535Z,41.10
2017-06-25T12:28:40.010Z,41.00
2017-06-25T12:31:07.498Z,41.50
2017-06-25T12:33:34.970Z,42.00
2017-06-25T12:36:02.463Z,42.00
2017-06-25T12:38:29.939Z,42.60
2017-06-25T12:40:57.426Z,43.30
2017-06-25T12:43:24.896Z,44.00
2017-06-25T12:45:52.382Z,44.30
2017-06-25T12:48:19.856Z,44.50
2017-06-25T12:50:47.347Z,44.30
2017-06-25T12:53:14.815Z,44.60
2017-06-25T12:55:42.302Z,45.10
2017-06-25T12:58:09.770Z,45.30
2017-06-25T13:00:37.266Z,45.60
2017-06-25T13:03:04.766Z,45.80
2017-06-25T13:05:32.254Z,47.30
2017-06-25T13:07:59.739Z,48.70
2017-06-25T13:10:27.227Z,49.30
2017-06-25T13:12:54.698Z,49.80
2017-06-25T13:15:22.173Z,50.50
2017-06-25T13:17:49.665Z,51.30
2017-06-25T13:20:17.914Z,52.80
2017-06-25T13:22:45.407Z,52.30
2017-06-25T13:25:13.642Z,53.30
2017-06-25T13:27:41.138Z,53.30
2017-06-25T13:30:09.371Z,54.10
2017-06-25T13:32:36.858Z,54.10
2017-06-25T13:35:05.102Z,54.60
2017-06-25T13:37:32.594Z,54.60
2017-06-25T13:40:00.835Z,54.50
2017-06-25T13:42:28.319Z,54.30
2017-06-25T13:44:56.563Z,54.20
2017-06-25T13:47:24.064Z,54.20
2017-06-25T13:49:51.537Z,54.10
2017-06-25T13:52:19.026Z,53.40
2017-06-25T13:54:46.493Z,53.00
2017-06-25T13:57:13.987Z,52.40
2017-06-25T13:59:41.462Z,52.60
2017-06-25T14:02:08.968Z,51.80
2017-06-25T14:04:37.206Z,51.20
2017-06-25T14:07:04.702Z,51.10
2017-06-25T14:09:32.938Z,50.80
2017-06-25T14:12:00.415Z,50.80
2017-06-25T14:14:27.906Z,50.40
2017-06-25T14:16:55.382Z,50.20
2017-06-25T14:19:22.895Z,49.60
2017-06-25T14:21:51.135Z,49.60
2017-06-25T14:24:18.622Z,49.60
2017-06-25T14:26:46.856Z,49.10
2017-06-25T14:29:14.402Z,49.00
2017-06-25T14:31:41.900Z,49.10
2017-06-25T14:34:10.158Z,49.30
2017-06-25T14:36:37.634Z,49.30
2017-06-25T14:39:05.127Z,49.60
2017-06-25T14:41:32.602Z,49.50
2017-06-25T14:44:00.091Z,49.60
2017-06-25T14:46:27.567Z,49.60
2017-06-25T14:48:55.052Z,49.70
2017-06-25T14:51:22.527Z,49.80
2017-06-25T14:53:50.016Z,49.40
2017-06-25T14:56:17.492Z,49.40
2017-06-25T14:58:44.989Z,49.40
2017-06-25T15:01:12.486Z,49.70
2017-06-25T15:03:39.979Z,49.70
2017-06-25T15:06:07.450Z,49.70
2017-06-25T15:08:34.930Z,49.80
2017-06-25T15:11:03.186Z,50.60
2017-06-25T15:13:30.658Z,50.00
2017-06-25T15:15:58.929Z,50.50
2017-06-25T15:18:27.179Z,49.90
2017-06-25T15:20:54.662Z,49.80
2017-06-25T15:23:22.898Z,49.20
2017-06-25T15:25:50.386Z,49.10
2017-06-25T15:28:18.630Z,50.00
2017-06-25T15:30:46.116Z,50.00
2017-06-25T15:33:14.354Z,50.40
2017-06-25T15:35:41.881Z,50.30
2017-06-25T15:38:09.359Z,50.40
2017-06-25T15:40:36.848Z,50.60
2017-06-25T15:43:05.101Z,51.10
2017-06-25T15:45:32.594Z,50.40
2017-06-25T15:48:00.068Z,50.40
2017-06-25T15:50:27.564Z,50.50
2017-06-25T15:52:55.044Z,50.20
2017-06-25T15:55:23.298Z,50.50
2017-06-25T15:57:50.770Z,50.50
2017-06-25T16:00:19.036Z,50.30
2017-06-25T16:02:47.278Z,50.70
2017-06-25T16:05:14.746Z,50.70
2017-06-25T16:07:42.231Z,50.90
2017-06-25T16:10:10.466Z,50.90
2017-06-25T16:12:37.958Z,50.80
2017-06-25T16:15:06.198Z,50.30
2017-06-25T16:17:33.682Z,50.30
2017-06-25T16:20:01.923Z,50.20
2017-06-25T16:22:29.410Z,50.20
2017-06-25T16:24:56.882Z,50.00
2017-06-25T16:27:24.380Z,50.30
2017-06-25T16:29:51.846Z,50.30
2017-06-25T16:32:19.349Z,50.30
2017-06-25T16:34:46.819Z,50.30
2017-06-25T16:37:14.306Z,50.30
2017-06-25T16:39:41.778Z,50.20
2017-06-25T16:42:10.033Z,50.30
2017-06-25T16:44:37.501Z,49.80
2017-06-25T16:47:04.993Z,49.30
2017-06-25T16:49:32.539Z,48.50
2017-06-25T16:52:00.059Z,49.20
2017-06-25T16:54:27.530Z,48.70
2017-06-25T16:56:55.818Z,49.10
2017-06-25T16:59:23.291Z,49.10
2017-06-25T17:01:50.762Z,49.00
2017-06-25T17:04:18.246Z,48.50
2017-06-25T17:06:45.714Z,48.70
2017-06-25T17:09:13.198Z,49.10
2017-06-25T17:11:40.675Z,49.10
2017-06-25T17:14:08.162Z,49.10
2017-06-25T17:16:35.636Z,48.90
2017-06-25T17:19:03.893Z,48.80
2017-06-25T17:21:31.366Z,48.80
2017-06-25T17:23:59.618Z,48.70
2017-06-25T17:26:27.095Z,48.60
2017-06-25T17:28:55.346Z,48.50
2017-06-25T17:31:22.822Z,48.60
2017-06-25T17:33:51.079Z,48.20
2017-06-25T17:36:18.557Z,48.20
2017-06-25T17:38:46.915Z,48.10
2017-06-25T17:41:15.150Z,48.30
2017-06-25T17:43:42.645Z,48.40
2017-06-25T17:46:10.903Z,48.70
2017-06-25T17:48:38.390Z,48.60
2017-06-25T17:51:05.863Z,48.70
2017-06-25T17:53:33.354Z,49.10
2017-06-25T17:56:00.827Z,49.20
2017-06-25T17:58:28.338Z,49.20
2017-06-25T18:00:55.810Z,49.00
2017-06-25T18:03:23.282Z,48.80
2017-06-25T18:05:50.777Z,48.80
2017-06-25T18:08:18.245Z,49.10
2017-06-25T18:10:45.738Z,49.40
2017-06-25T18:13:13.220Z,49.70
2017-06-25T18:15:40.712Z,50.10
2017-06-25T18:18:08.182Z,50.20
2017-06-25T18:20:35.709Z,50.30
2017-06-25T18:23:03.178Z,50.40
2017-06-25T18:25:30.675Z,50.40
2017-06-25T18:27:58.142Z,50.60
2017-06-25T18:30:26.395Z,51.00
2017-06-25T18:32:53.871Z,51.00
2017-06-25T18:35:22.137Z,51.60
2017-06-25T18:37:50.395Z,51.20
2017-06-25T18:40:17.887Z,51.00
2017-06-25T18:42:46.119Z,51.10
2017-06-25T18:45:13.610Z,51.00
2017-06-25T18:47:41.854Z,51.10
2017-06-25T18:50:09.360Z,51.10
2017-06-25T18:52:36.830Z,51.00
2017-06-25T18:55:04.302Z,50.90
2017-06-25T18:57:31.794Z,51.20
2017-06-25T19:00:00.036Z,51.50
2017-06-25T19:02:27.529Z,51.40
2017-06-25T19:04:55.021Z,51.50
2017-06-25T19:07:22.508Z,51.60
2017-06-25T19:09:49.991Z,51.60
2017-06-25T19:12:18.246Z,51.60
2017-06-25T19:14:46.494Z,51.20
2017-06-25T19:17:13.987Z,51.50
2017-06-25T19:19:42.235Z,51.80
2017-06-25T19:22:09.726Z,51.80
2017-06-25T19:24:37.204Z,51.80
2017-06-25T19:27:04.699Z,52.20
2017-06-25T19:29:32.170Z,52.40
2017-06-25T19:32:00.434Z,52.80
2017-06-25T19:34:27.914Z,53.30
2017-06-25T19:36:55.403Z,52.90
2017-06-25T19:39:22.896Z,52.90
2017-06-25T19:41:50.394Z,53.00
2017-06-25T19:44:17.871Z,53.00
2017-06-25T19:46:45.346Z,53.10
2017-06-25T19:49:12.831Z,53.30
2017-06-25T19:51:41.071Z,53.30
2017-06-25T19:54:08.562Z,53.30
2017-06-25T19:56:36.806Z,53.70
2017-06-25T19:59:04.302Z,53.70
2017-06-25T20:01:31.782Z,53.80
2017-06-25T20:03:59.284Z,53.80
2017-06-25T20:06:27.530Z,54.90
2017-06-25T20:08:55.014Z,54.20
2017-06-25T20:11:23.256Z,54.30
2017-06-25T20:13:50.761Z,54.30
2017-06-25T20:16:18.234Z,54.40
2017-06-25T20:18:45.728Z,54.60
2017-06-25T20:21:13.200Z,54.40
2017-06-25T20:23:40.690Z,54.10
2017-06-25T20:26:08.162Z,54.40
2017-06-25T20:28:35.666Z,53.90
2017-06-25T20:31:03.145Z,53.70
2017-06-25T20:33:30.634Z,53.90
2017-06-25T20:35:58.107Z,53.80
2017-06-25T20:38:25.620Z,53.90
2017-06-25T20:40:53.096Z,54.00
2017-06-25T20:43:20.575Z,53.60
2017-06-25T20:45:48.076Z,53.60
2017-06-25T20:48:15.554Z,53.70
2017-06-25T20:50:43.050Z,53.70
2017-06-25T20:53:10.522Z,53.70
2017-06-25T20:55:38.783Z,54.00
2017-06-25T20:58:06.268Z,53.90
2017-06-25T21:00:33.771Z,53.70
2017-06-25T21:03:01.249Z,53.70
2017-06-25T21:05:29.522Z,53.80
2017-06-25T21:07:57.764Z,53.60
2017-06-25T21:10:25.264Z,53.60
2017-06-25T21:12:53.506Z,53.70
2017-06-25T21:15:21.026Z,53.70
2017-06-25T21:17:48.511Z,54.00
2017-06-25T21:20:16.004Z,53.90
2017-06-25T21:22:43.480Z,53.90
2017-06-25T21:25:10.973Z,54.00
2017-06-25T21:27:38.459Z,54.30
2017-06-25T21:30:06.710Z,54.50
2017-06-25T21:32:34.972Z,55.10
2017-06-25T21:35:02.480Z,54.60
2017-06-25T21:37:29.959Z,54.90
2017-06-25T21:39:57.439Z,54.90
2017-06-25T21:42:24.934Z,54.90
2017-06-25T21:44:52.415Z,54.70
2017-06-25T21:47:19.908Z,54.70
2017-06-25T21:49:47.378Z,54.90
2017-06-25T21:52:14.881Z,55.00
2017-06-25T21:54:42.359Z,55.10
2017-06-25T21:57:09.846Z,55.20
2017-06-25T21:59:38.096Z,55.40
2017-06-25T22:02:05.588Z,55.40
2017-06-25T22:04:33.058Z,55.30
2017-06-25T22:07:00.547Z,55.60
2017-06-25T22:09:28.014Z,55.70
2017-06-25T22:11:55.499Z,55.80
2017-06-25T22:14:23.739Z,56.20
2017-06-25T22:16:51.234Z,56.20
2017-06-25T22:19:18.707Z,56.50
2017-06-25T22:21:46.196Z,56.40
2017-06-25T22:24:13.682Z,56.50
2017-06-25T22:26:41.172Z,56.50
2017-06-25T22:29:08.646Z,56.70
2017-06-25T22:31:36.122Z,56.70
2017-06-25T22:34:03.611Z,56.80
2017-06-25T22:36:31.846Z,57.00
2017-06-25T22:38:59.338Z,57.00
2017-06-25T22:41:26.821Z,57.10
2017-06-25T22:43:54.318Z,57.10
2017-06-25T22:46:21.786Z,57.20
2017-06-25T22:48:49.279Z,57.20
2017-06-25T22:51:16.759Z,57.20
2017-06-25T22:53:44.258Z,57.20
2017-06-25T22:56:12.501Z,57.20
2017-06-25T22:58:40.001Z,57.20
2017-06-25T23:01:07.475Z,57.10
2017-06-25T23:03:34.971Z,57.20
2017-06-25T23:06:02.450Z,57.30
2017-06-25T23:08:30.714Z,57.40
2017-06-25T23:10:58.961Z,57.50
2017-06-25T23:13:26.456Z,57.40
2017-06-25T23:15:53.931Z,57.50
2017-06-25T23:18:21.431Z,57.50
2017-06-25T23:20:48.913Z,57.60
2017-06-25T23:23:17.187Z,57.70
2017-06-25T23:25:45.424Z,57.90
2017-06-25T23:28:12.900Z,57.80
2017-06-25T23:30:40.391Z,57.90
2017-06-25T23:33:07.875Z,57.70
2017-06-25T23:35:35.367Z,57.80
2017-06-25T23:38:03.610Z,58.40
2017-06-25T23:40:31.105Z,57.70
2017-06-25T23:42:59.343Z,58.00
2017-06-25T23:45:26.974Z,57.90
2017-06-25T23:47:54.451Z,58.00
2017-06-25T23:50:21.943Z,58.00
2017-06-25T23:52:50.184Z,58.10
2017-06-25T23:55:17.674Z,58.10
2017-06-25T23:57:45.159Z,58.10
